METAR Data
IDs: Format: Raw Decoded Include TAF

Data at: 1258 UTC 23 Sep 2018

KVPZ 231256Z AUTO 07005KT 9SM CLR 11/09 A3020 RMK AO2 SLP228 T01110089
KVPZ 231156Z AUTO 05004KT 5SM BR CLR 08/06 A3020 RMK AO2 SLP227 T00830061 10094 20078 53004
KVPZ 231056Z AUTO 04005KT 7SM CLR 08/06 A3019 RMK AO2 SLP222 T00830061
KVPZ 230956Z AUTO 05004KT 8SM CLR 08/06 A3018 RMK AO2 SLP221 T00830061
KVPZ 230856Z AUTO 04004KT 9SM CLR 09/07 A3018 RMK AO2 SLP220 T00890067 56002
KVPZ 230756Z AUTO 04005KT 10SM CLR 09/07 A3018 RMK AO2 SLP221 T00890067
KVPZ 230656Z AUTO 10003KT 10SM CLR 09/06 A3019 RMK AO2 SLP223 T00890061
KVPZ 230556Z AUTO 07004KT 10SM CLR 09/07 A3019 RMK AO2 SLP223 T00940067 10144 20094 402000094 56012
KVPZ 230456Z AUTO 06003KT 10SM CLR 09/07 A3020 RMK AO2 SLP228 T00940067
KVPZ 230356Z AUTO 09003KT 10SM CLR 10/07 A3021 RMK AO2 SLP231 T01000067
KVPZ 230256Z AUTO 06003KT 10SM CLR 11/07 A3022 RMK AO2 SLP236 T01060072 53006
KVPZ 230156Z AUTO 00000KT 10SM CLR 11/07 A3021 RMK AO2 SLP233 T01110072
KVPZ 230056Z AUTO 00000KT 10SM CLR 12/07 A3021 RMK AO2 SLP231 T01220072
KVPZ 222356Z AUTO 05003KT 10SM CLR 15/08 A3020 RMK AO2 SLP229 T01500078 10200 20150 58006
KVPZ 222256Z AUTO 05004KT 10SM CLR 19/07 A3021 RMK AO2 SLP230 T01890067
KVPZ 222156Z AUTO 11006KT 10SM CLR 19/07 A3022 RMK AO2 SLP232 T01940067
KVPZ 222056Z AUTO 09008KT 10SM CLR 19/06 A3022 RMK AO2 SLP233 T01940061 58024
KVPZ 221956Z AUTO VRB04KT 10SM CLR 19/07 A3025 RMK AO2 SLP241 T01940067
KVPZ 221856Z AUTO 08007KT 10SM CLR 18/07 A3027 RMK AO2 SLP248 T01780067
KVPZ 221756Z AUTO 09007KT 10SM CLR 18/06 A3029 RMK AO2 SLP257 T01780061 10178 20111 58012
KVPZ 221656Z AUTO 10006G17KT 10SM CLR 17/06 A3031 RMK AO2 SLP263 T01670061
KVPZ 221556Z AUTO 09007KT 10SM CLR 15/06 A3033 RMK AO2 SLP271 T01500061
KVPZ 221456Z AUTO 07011KT 10SM CLR 14/06 A3033 RMK AO2 SLP269 T01440056 50004
KVPZ 221356Z AUTO 07010KT 10SM CLR 13/05 A3033 RMK AO2 SLP270 T01280050
KVPZ 221256Z AUTO 04006KT 10SM CLR 12/05 A3033 RMK AO2 SLP271 T01170050
KVPZ 221156Z AUTO 04004KT 10SM CLR 11/05 A3032 RMK AO2 SLP265 T01110050 10161 20111 53014
KVPZ 221056Z AUTO 05007KT 10SM CLR 12/05 A3030 RMK AO2 SLP259 T01170050
KVPZ 220956Z AUTO 05007KT 10SM CLR 12/06 A3029 RMK AO2 SLP254 T01220056
KVPZ 220856Z AUTO 06008KT 10SM CLR 13/07 A3027 RMK AO2 SLP249 T01330067 52009
KVPZ 220756Z AUTO 04005KT 10SM BKN041 15/07 A3026 RMK AO2 SLP243 T01500072
KVPZ 220656Z AUTO 02008G17KT 10SM FEW033 OVC044 16/08 A3026 RMK AO2 SLP245 T01610083
KVPZ 220556Z AUTO 01008G17KT 10SM BKN042 16/07 A3025 RMK AO2 SLP239 T01610072 10200 20161 402720161 51012
KVPZ 220456Z AUTO 36008G16KT 10SM FEW043 16/08 A3024 RMK AO2 SLP237 T01610078
KVPZ 220356Z AUTO 36008G25KT 340V040 10SM CLR 17/09 A3023 RMK AO2 SLP232 T01670089
KVPZ 220256Z AUTO 33011G21KT 10SM CLR 17/09 A3021 RMK AO2 SLP226 T01720089 51038
KVPZ 220156Z AUTO 34008G15KT 320V030 10SM CLR 18/08 A3019 RMK AO2 SLP218 T01780083